Time,TemperatureF,DewpointF,PressureIn,WindDirection,WindDirectionDegrees,WindSpeedMPH,WindSpeedGustMPH,Humidity,HourlyPrecipIn,Conditions,Clouds,dailyrainin,SoftwareType,DateUTC
2013-02-02 00:00:00,11.8,8.7,30.15,WNW,293,15.0,18.0,87,0.00,,---,0.00,VWS V14.01,2013-02-02 05:00:00,
2013-02-02 00:01:00,11.8,8.7,30.15,WNW,301,6.0,18.0,87,0.00,,---,0.00,VWS V14.01,2013-02-02 05:01:00,
2013-02-02 00:03:00,11.9,8.8,30.15,NW,321,24.0,24.0,87,0.00,,---,0.00,VWS V14.01,2013-02-02 05:03:00,
2013-02-02 00:06:00,11.8,8.4,30.15,WNW,290,11.0,24.0,86,0.00,,---,0.00,VWS V14.01,2013-02-02 05:06:00,
2013-02-02 00:11:00,11.8,8.2,30.15,WNW,295,11.0,21.0,85,0.00,,---,0.00,VWS V14.01,2013-02-02 05:11:00,
2013-02-02 00:16:00,11.7,8.1,30.16,WNW,295,9.0,23.0,85,0.00,,---,0.00,VWS V14.01,2013-02-02 05:16:00,
2013-02-02 00:21:00,11.7,8.1,30.16,WNW,297,8.0,21.0,85,0.00,,---,0.00,VWS V14.01,2013-02-02 05:21:00,
2013-02-02 00:26:00,11.6,8.5,30.16,WNW,295,9.0,14.0,87,0.00,,---,0.00,VWS V14.01,2013-02-02 05:26:00,
2013-02-02 00:31:00,11.5,8.6,30.16,NW,315,6.0,14.0,88,0.00,,---,0.00,VWS V14.01,2013-02-02 05:31:00,
2013-02-02 00:36:00,11.4,8.5,30.16,NW,316,13.0,14.0,88,0.00,,---,0.00,VWS V14.01,2013-02-02 05:36:00,
2013-02-02 00:41:00,11.4,8.5,30.16,NW,304,7.0,17.0,88,0.00,,---,0.00,VWS V14.01,2013-02-02 05:41:00,
2013-02-02 00:46:00,11.3,8.7,30.17,West,281,11.0,14.0,89,0.00,,---,0.00,VWS V14.01,2013-02-02 05:46:00,
2013-02-02 00:51:00,11.2,8.6,30.17,WNW,292,11.0,13.0,89,0.00,,---,0.00,VWS V14.01,2013-02-02 05:51:00,
2013-02-02 00:56:00,11.1,8.2,30.17,WNW,298,10.0,17.0,88,0.00,,---,0.00,VWS V14.01,2013-02-02 05:56:00,
2013-02-02 01:01:00,11.0,8.1,30.17,WNW,301,10.0,17.0,88,0.00,,---,0.00,VWS V14.01,2013-02-02 06:01:00,
2013-02-02 01:06:00,10.8,7.7,30.17,NW,311,9.0,15.0,87,0.00,,---,0.00,VWS V14.01,2013-02-02 06:06:00,
2013-02-02 01:11:00,10.6,7.5,30.17,NW,310,8.0,16.0,87,0.00,,---,0.00,VWS V14.01,2013-02-02 06:11:00,
2013-02-02 01:16:00,10.5,7.4,30.17,WNW,295,10.0,18.0,87,0.00,,---,0.00,VWS V14.01,2013-02-02 06:16:00,
2013-02-02 01:21:00,10.4,7.3,30.17,WNW,301,8.0,15.0,87,0.00,,---,0.00,VWS V14.01,2013-02-02 06:21:00,
2013-02-02 01:26:00,10.2,7.1,30.17,WNW,300,9.0,12.0,87,0.00,,---,0.00,VWS V14.01,2013-02-02 06:26:00,
2013-02-02 01:31:00,10.2,7.1,30.17,NW,310,9.0,15.0,87,0.00,,---,0.00,VWS V14.01,2013-02-02 06:31:00,
2013-02-02 01:36:00,10.2,7.1,30.17,WNW,297,6.0,15.0,87,0.00,,---,0.00,VWS V14.01,2013-02-02 06:36:00,
2013-02-02 01:41:00,10.2,7.1,30.18,WNW,301,13.0,14.0,87,0.00,,---,0.00,VWS V14.01,2013-02-02 06:41:00,
2013-02-02 01:46:00,10.0,6.9,30.18,NW,322,8.0,15.0,87,0.00,,---,0.00,VWS V14.01,2013-02-02 06:46:00,
2013-02-02 01:51:00,9.9,6.8,30.18,NW,308,10.0,12.0,87,0.00,,---,0.00,VWS V14.01,2013-02-02 06:51:00,
2013-02-02 01:56:00,9.9,6.8,30.18,NW,310,7.0,16.0,87,0.00,,---,0.00,VWS V14.01,2013-02-02 06:56:00,
2013-02-02 02:01:00,9.8,6.7,30.18,WNW,301,9.0,14.0,87,0.00,,---,0.00,VWS V14.01,2013-02-02 07:01:00,
2013-02-02 02:06:00,9.6,6.5,30.18,WNW,303,6.0,11.0,87,0.00,,---,0.00,VWS V14.01,2013-02-02 07:06:00,
2013-02-02 02:11:00,9.5,6.7,30.19,NW,323,5.0,11.0,88,0.00,,---,0.00,VWS V14.01,2013-02-02 07:11:00,
2013-02-02 02:16:00,9.4,6.6,30.19,WNW,298,6.0,11.0,88,0.00,,---,0.00,VWS V14.01,2013-02-02 07:16:00,
2013-02-02 02:21:00,9.5,6.7,30.19,NW,308,7.0,11.0,88,0.00,,---,0.00,VWS V14.01,2013-02-02 07:21:00,
2013-02-02 02:26:00,9.5,6.7,30.19,NW,316,5.0,10.0,88,0.00,,---,0.00,VWS V14.01,2013-02-02 07:26:00,
2013-02-02 02:32:00,9.5,6.7,30.19,WNW,284,7.0,10.0,88,0.00,,---,0.00,VWS V14.01,2013-02-02 07:32:00,
2013-02-02 02:37:00,9.5,6.7,30.19,WNW,283,8.0,10.0,88,0.00,,---,0.00,VWS V14.01,2013-02-02 07:37:00,
2013-02-02 02:42:00,9.3,6.5,30.19,WNW,288,4.0,9.0,88,0.00,,---,0.00,VWS V14.01,2013-02-02 07:42:00,
2013-02-02 02:47:00,9.2,6.6,30.20,WNW,290,5.0,14.0,89,0.00,,---,0.00,VWS V14.01,2013-02-02 07:47:00,
2013-02-02 02:52:00,9.1,6.5,30.20,WNW,288,4.0,11.0,89,0.00,,---,0.00,VWS V14.01,2013-02-02 07:52:00,
2013-02-02 02:57:00,9.1,6.3,30.19,NW,308,4.0,7.0,88,0.00,,---,0.00,VWS V14.01,2013-02-02 07:57:00,
2013-02-02 03:02:00,9.0,6.2,30.19,WNW,298,4.0,8.0,88,0.00,,---,0.00,VWS V14.01,2013-02-02 08:02:00,
2013-02-02 03:08:00,9.0,6.2,30.19,WNW,291,3.0,10.0,88,0.00,,---,0.00,VWS V14.01,2013-02-02 08:08:00,
2013-02-02 03:13:00,9.0,6.2,30.20,WNW,288,7.0,12.0,88,0.00,,---,0.00,VWS V14.01,2013-02-02 08:13:00,
2013-02-02 03:18:00,9.0,5.9,30.19,NW,305,4.0,10.0,87,0.00,,---,0.00,VWS V14.01,2013-02-02 08:18:00,
2013-02-02 03:23:00,8.9,6.1,30.19,WNW,297,2.0,7.0,88,0.00,,---,0.00,VWS V14.01,2013-02-02 08:23:00,
2013-02-02 03:28:00,8.9,6.1,30.20,WNW,288,4.0,10.0,88,0.00,,---,0.00,VWS V14.01,2013-02-02 08:28:00,
2013-02-02 03:33:00,8.8,5.7,30.20,NW,310,4.0,9.0,87,0.00,,---,0.00,VWS V14.01,2013-02-02 08:33:00,
2013-02-02 03:38:00,8.8,5.7,30.20,NW,307,6.0,9.0,87,0.00,,---,0.00,VWS V14.01,2013-02-02 08:38:00,
2013-02-02 03:43:00,8.7,5.6,30.20,WNW,297,6.0,9.0,87,0.00,,---,0.00,VWS V14.01,2013-02-02 08:43:00,
2013-02-02 03:48:00,8.7,5.6,30.20,WNW,291,6.0,8.0,87,0.00,,---,0.00,VWS V14.01,2013-02-02 08:48:00,
2013-02-02 03:53:00,8.7,5.4,30.20,WNW,295,6.0,10.0,86,0.00,,---,0.00,VWS V14.01,2013-02-02 08:53:00,
2013-02-02 03:58:00,8.8,5.5,30.20,WNW,302,4.0,12.0,86,0.00,,---,0.00,VWS V14.01,2013-02-02 08:58:00,
2013-02-02 04:03:00,8.7,5.1,30.21,WNW,298,6.0,9.0,85,0.00,,---,0.00,VWS V14.01,2013-02-02 09:03:00,
2013-02-02 04:08:00,8.7,5.1,30.21,NW,305,5.0,10.0,85,0.00,,---,0.00,VWS V14.01,2013-02-02 09:08:00,
2013-02-02 04:13:00,8.7,5.1,30.21,WNW,288,5.0,9.0,85,0.00,,---,0.00,VWS V14.01,2013-02-02 09:13:00,
2013-02-02 04:18:00,8.6,5.0,30.21,WNW,300,4.0,8.0,85,0.00,,---,0.00,VWS V14.01,2013-02-02 09:18:00,
2013-02-02 04:23:00,8.5,4.9,30.21,WNW,295,5.0,6.0,85,0.00,,---,0.00,VWS V14.01,2013-02-02 09:23:00,
2013-02-02 04:28:00,8.4,5.1,30.21,NW,305,4.0,6.0,86,0.00,,---,0.00,VWS V14.01,2013-02-02 09:28:00,
2013-02-02 04:33:00,8.3,5.0,30.20,WNW,301,4.0,5.0,86,0.00,,---,0.00,VWS V14.01,2013-02-02 09:33:00,
2013-02-02 04:38:00,8.0,4.7,30.20,WNW,292,2.0,4.0,86,0.00,,---,0.00,VWS V14.01,2013-02-02 09:38:00,
2013-02-02 04:44:00,7.8,4.7,30.20,NW,323,3.0,9.0,87,0.00,,---,0.00,VWS V14.01,2013-02-02 09:44:00,
2013-02-02 04:49:00,7.8,4.7,30.20,NW,323,2.0,7.0,87,0.00,,---,0.00,VWS V14.01,2013-02-02 09:49:00,
2013-02-02 04:54:00,7.7,4.7,30.20,NW,316,4.0,5.0,87,0.00,,---,0.00,VWS V14.01,2013-02-02 09:54:00,
2013-02-02 04:59:00,7.7,4.7,30.20,NW,307,4.0,5.0,87,0.00,,---,0.00,VWS V14.01,2013-02-02 09:59:00,
2013-02-02 05:04:00,7.6,4.6,30.20,WNW,303,3.0,3.0,87,0.00,,---,0.00,VWS V14.01,2013-02-02 10:04:00,
2013-02-02 05:09:00,7.4,4.3,30.20,NW,307,2.0,4.0,87,0.00,,---,0.00,VWS V14.01,2013-02-02 10:09:00,
2013-02-02 05:14:00,7.3,4.2,30.20,NW,320,1.0,3.0,87,0.00,,---,0.00,VWS V14.01,2013-02-02 10:14:00,
2013-02-02 05:19:00,7.0,4.0,30.20,NW,316,2.0,3.0,87,0.00,,---,0.00,VWS V14.01,2013-02-02 10:19:00,
2013-02-02 05:24:00,7.0,4.2,30.20,NW,305,0.0,2.0,88,0.00,,---,0.00,VWS V14.01,2013-02-02 10:24:00,
2013-02-02 05:29:00,6.7,3.7,30.20,NW,316,0.0,1.0,87,0.00,,---,0.00,VWS V14.01,2013-02-02 10:29:00,
2013-02-02 05:34:00,6.4,3.6,30.20,WNW,301,0.0,1.0,88,0.00,,---,0.00,VWS V14.01,2013-02-02 10:34:00,
2013-02-02 05:39:00,6.2,3.4,30.20,NW,315,0.0,1.0,88,0.00,,---,0.00,VWS V14.01,2013-02-02 10:39:00,
2013-02-02 05:44:00,6.1,3.3,30.20,NW,315,0.0,1.0,88,0.00,,---,0.00,VWS V14.01,2013-02-02 10:44:00,
2013-02-02 05:49:00,5.6,2.8,30.20,NW,315,0.0,0.0,88,0.00,,---,0.00,VWS V14.01,2013-02-02 10:49:00,
2013-02-02 05:54:00,5.4,2.6,30.20,NW,315,0.0,0.0,88,0.00,,---,0.00,VWS V14.01,2013-02-02 10:54:00,
2013-02-02 05:59:00,4.8,2.0,30.21,NW,315,0.0,0.0,88,0.00,,---,0.00,VWS V14.01,2013-02-02 10:59:00,
2013-02-02 06:04:00,4.0,1.2,30.21,NW,315,0.0,0.0,88,0.00,,---,0.00,VWS V14.01,2013-02-02 11:04:00,
2013-02-02 06:09:00,3.6,1.1,30.21,NW,315,0.0,0.0,89,0.00,,---,0.00,VWS V14.01,2013-02-02 11:09:00,
2013-02-02 06:14:00,3.4,0.9,30.21,NW,315,0.0,0.0,89,0.00,,---,0.00,VWS V14.01,2013-02-02 11:14:00,
2013-02-02 06:19:00,3.3,0.8,30.21,NW,315,0.0,0.0,89,0.00,,---,0.00,VWS V14.01,2013-02-02 11:19:00,
2013-02-02 06:24:00,3.3,1.0,30.21,NW,315,0.0,0.0,90,0.00,,---,0.00,VWS V14.01,2013-02-02 11:24:00,
2013-02-02 06:29:00,3.1,0.8,30.21,NW,315,0.0,0.0,90,0.00,,---,0.00,VWS V14.01,2013-02-02 11:29:00,
2013-02-02 06:34:00,2.8,0.5,30.21,NW,315,0.0,0.0,90,0.00,,---,0.00,VWS V14.01,2013-02-02 11:34:00,
2013-02-02 06:39:00,3.0,1.0,30.21,NW,315,0.0,0.0,91,0.00,,---,0.00,VWS V14.01,2013-02-02 11:39:00,
2013-02-02 06:44:00,3.5,1.7,30.21,NW,315,0.0,1.0,92,0.00,,---,0.00,VWS V14.01,2013-02-02 11:44:00,
2013-02-02 06:49:00,4.4,2.8,30.22,West,263,1.0,4.0,93,0.00,,---,0.00,VWS V14.01,2013-02-02 11:49:00,
2013-02-02 06:54:00,5.6,4.0,30.22,WNW,287,3.0,5.0,93,0.00,,---,0.00,VWS V14.01,2013-02-02 11:54:00,
2013-02-02 06:59:00,6.4,4.6,30.22,WNW,283,2.0,3.0,92,0.00,,---,0.00,VWS V14.01,2013-02-02 11:59:00,
2013-02-02 07:04:00,7.2,5.4,30.22,West,279,2.0,5.0,92,0.00,,---,0.00,VWS V14.01,2013-02-02 12:04:00,
2013-02-02 07:09:00,7.6,5.3,30.22,WSW,241,2.0,5.0,90,0.00,,---,0.00,VWS V14.01,2013-02-02 12:09:00,
2013-02-02 07:14:00,7.8,5.2,30.22,West,275,0.0,5.0,89,0.00,,---,0.00,VWS V14.01,2013-02-02 12:14:00,
2013-02-02 07:19:00,8.0,5.4,30.21,West,274,2.0,3.0,89,0.00,,---,0.00,VWS V14.01,2013-02-02 12:19:00,
2013-02-02 07:24:00,8.2,5.6,30.22,WNW,291,2.0,4.0,89,0.00,,---,0.00,VWS V14.01,2013-02-02 12:24:00,
2013-02-02 07:29:00,8.4,5.8,30.22,West,269,1.0,3.0,89,0.00,,---,0.00,VWS V14.01,2013-02-02 12:29:00,
2013-02-02 07:34:00,8.5,5.7,30.22,West,270,2.0,2.0,88,0.00,,---,0.00,VWS V14.01,2013-02-02 12:34:00,
2013-02-02 07:39:00,8.7,5.9,30.21,WSW,244,7.0,7.0,88,0.00,,---,0.00,VWS V14.01,2013-02-02 12:39:00,
2013-02-02 07:44:00,8.9,6.1,30.22,WNW,285,2.0,4.0,88,0.00,,---,0.00,VWS V14.01,2013-02-02 12:44:00,
2013-02-02 07:49:00,9.2,6.4,30.22,West,263,2.0,5.0,88,0.00,,---,0.00,VWS V14.01,2013-02-02 12:49:00,
2013-02-02 07:54:00,9.5,6.4,30.22,West,267,2.0,3.0,87,0.00,,---,0.00,VWS V14.01,2013-02-02 12:54:00,
2013-02-02 07:59:00,9.9,6.8,30.22,West,261,4.0,5.0,87,0.00,,---,0.00,VWS V14.01,2013-02-02 12:59:00,
2013-02-02 08:04:00,10.4,7.1,30.22,WSW,250,5.0,7.0,86,0.00,,---,0.00,VWS V14.01,2013-02-02 13:04:00,
2013-02-02 08:09:00,11.0,7.4,30.22,WSW,247,4.0,9.0,85,0.00,,---,0.00,VWS V14.01,2013-02-02 13:09:00,
2013-02-02 08:14:00,11.4,7.5,30.21,West,273,6.0,8.0,84,0.00,,---,0.00,VWS V14.01,2013-02-02 13:14:00,
2013-02-02 08:19:00,11.7,7.6,30.22,WSW,252,6.0,11.0,83,0.00,,---,0.00,VWS V14.01,2013-02-02 13:19:00,
2013-02-02 08:24:00,11.8,7.6,30.22,WNW,285,5.0,11.0,83,0.00,,---,0.00,VWS V14.01,2013-02-02 13:24:00,
2013-02-02 08:29:00,11.9,7.7,30.22,SW,218,3.0,11.0,83,0.00,,---,0.00,VWS V14.01,2013-02-02 13:29:00,
2013-02-02 08:34:00,12.0,7.6,30.22,West,270,6.0,8.0,82,0.00,,---,0.00,VWS V14.01,2013-02-02 13:34:00,
2013-02-02 08:39:00,12.2,7.5,30.22,WSW,243,2.0,6.0,81,0.00,,---,0.00,VWS V14.01,2013-02-02 13:39:00,
2013-02-02 08:44:00,12.3,7.3,30.22,West,271,5.0,11.0,80,0.00,,---,0.00,VWS V14.01,2013-02-02 13:44:00,
2013-02-02 08:49:00,12.4,7.1,30.22,WSW,253,5.0,12.0,79,0.00,,---,0.00,VWS V14.01,2013-02-02 13:49:00,
2013-02-02 08:54:00,12.4,6.9,30.22,WSW,240,6.0,11.0,78,0.00,,---,0.00,VWS V14.01,2013-02-02 13:54:00,
2013-02-02 08:59:00,12.5,7.0,30.22,WSW,246,5.0,11.0,78,0.00,,---,0.00,VWS V14.01,2013-02-02 13:59:00,
2013-02-02 09:04:00,12.7,7.2,30.21,SW,214,2.0,8.0,78,0.00,,---,0.00,VWS V14.01,2013-02-02 14:04:00,
2013-02-02 09:09:00,13.2,7.6,30.21,SW,215,8.0,12.0,78,0.00,,---,0.00,VWS V14.01,2013-02-02 14:09:00,
2013-02-02 09:14:00,13.6,7.7,30.21,WSW,251,7.0,10.0,77,0.00,,---,0.00,VWS V14.01,2013-02-02 14:14:00,
2013-02-02 09:19:00,13.7,7.6,30.21,WSW,243,3.0,7.0,76,0.00,,---,0.00,VWS V14.01,2013-02-02 14:19:00,
2013-02-02 09:24:00,13.9,7.8,30.21,SW,218,6.0,14.0,76,0.00,,---,0.00,VWS V14.01,2013-02-02 14:24:00,
2013-02-02 09:29:00,14.2,7.7,30.21,WSW,256,6.0,14.0,75,0.00,,---,0.00,VWS V14.01,2013-02-02 14:29:00,
2013-02-02 09:34:00,14.2,7.7,30.21,SW,228,11.0,12.0,75,0.00,,---,0.00,VWS V14.01,2013-02-02 14:34:00,
2013-02-02 09:39:00,14.3,7.6,30.20,SSW,208,10.0,12.0,74,0.00,,---,0.00,VWS V14.01,2013-02-02 14:39:00,
2013-02-02 09:44:00,14.7,7.9,30.20,WSW,249,7.0,10.0,74,0.00,,---,0.00,VWS V14.01,2013-02-02 14:44:00,
2013-02-02 09:49:00,15.0,8.2,30.21,SSW,194,3.0,11.0,74,0.00,,---,0.00,VWS V14.01,2013-02-02 14:49:00,
2013-02-02 09:54:00,15.0,7.9,30.21,WNW,288,6.0,8.0,73,0.00,,---,0.00,VWS V14.01,2013-02-02 14:54:00,
2013-02-02 09:59:00,14.8,7.1,30.21,WSW,256,7.0,14.0,71,0.00,,---,0.00,VWS V14.01,2013-02-02 14:59:00,
2013-02-02 10:04:00,14.9,7.8,30.20,SW,232,3.0,8.0,73,0.00,,---,0.00,VWS V14.01,2013-02-02 15:04:00,
2013-02-02 10:09:00,15.2,7.5,30.20,West,259,6.0,11.0,71,0.00,,---,0.00,VWS V14.01,2013-02-02 15:09:00,
2013-02-02 10:14:00,15.5,7.8,30.20,WSW,240,5.0,8.0,71,0.00,,---,0.00,VWS V14.01,2013-02-02 15:14:00,
2013-02-02 10:19:00,15.9,8.2,30.20,SW,222,10.0,12.0,71,0.00,,---,0.00,VWS V14.01,2013-02-02 15:19:00,
2013-02-02 10:24:00,15.7,7.7,30.20,SSW,205,3.0,10.0,70,0.00,,---,0.00,VWS V14.01,2013-02-02 15:24:00,
2013-02-02 10:29:00,15.8,7.8,30.19,SSW,200,11.0,11.0,70,0.00,,---,0.00,VWS V14.01,2013-02-02 15:29:00,
2013-02-02 10:34:00,15.6,7.3,30.19,South,187,6.0,10.0,69,0.00,,---,0.00,VWS V14.01,2013-02-02 15:34:00,
2013-02-02 10:39:00,15.8,7.8,30.19,SSW,201,12.0,12.0,70,0.00,,---,0.00,VWS V14.01,2013-02-02 15:39:00,
2013-02-02 10:44:00,16.0,8.0,30.19,SSW,207,4.0,9.0,70,0.00,,---,0.00,VWS V14.01,2013-02-02 15:44:00,
2013-02-02 10:49:00,16.6,8.5,30.19,South,174,11.0,16.0,70,0.00,,---,0.00,VWS V14.01,2013-02-02 15:49:00,
2013-02-02 10:54:00,16.4,8.3,30.19,SSW,210,10.0,14.0,70,0.00,,---,0.00,VWS V14.01,2013-02-02 15:54:00,
2013-02-02 10:59:00,16.8,9.0,30.18,South,169,6.0,12.0,71,0.00,,---,0.00,VWS V14.01,2013-02-02 15:59:00,
2013-02-02 11:04:00,17.5,9.4,30.18,SSE,165,10.0,13.0,70,0.00,,---,0.00,VWS V14.01,2013-02-02 16:04:00,
2013-02-02 11:09:00,17.2,8.8,30.17,South,174,6.0,12.0,69,0.00,,---,0.00,VWS V14.01,2013-02-02 16:09:00,
2013-02-02 11:14:00,17.1,8.4,30.17,WSW,250,7.0,12.0,68,0.00,,---,0.00,VWS V14.01,2013-02-02 16:14:00,
2013-02-02 11:19:00,17.4,8.7,30.16,SSW,210,8.0,14.0,68,0.00,,---,0.00,VWS V14.01,2013-02-02 16:19:00,
2013-02-02 11:24:00,17.7,8.3,30.16,SSW,213,5.0,12.0,66,0.00,,---,0.00,VWS V14.01,2013-02-02 16:24:00,
2013-02-02 11:29:00,18.2,9.1,30.16,SSW,204,4.0,8.0,67,0.00,,---,0.00,VWS V14.01,2013-02-02 16:29:00,
2013-02-02 11:34:00,18.3,8.5,30.15,SW,235,4.0,7.0,65,0.00,,---,0.00,VWS V14.01,2013-02-02 16:34:00,
2013-02-02 11:39:00,18.7,8.2,30.15,SSW,212,7.0,12.0,63,0.00,,---,0.00,VWS V14.01,2013-02-02 16:39:00,
2013-02-02 11:44:00,19.0,8.1,30.14,SW,236,10.0,10.0,62,0.00,,---,0.00,VWS V14.01,2013-02-02 16:44:00,
2013-02-02 11:49:00,19.2,8.0,30.14,South,180,11.0,12.0,61,0.00,,---,0.00,VWS V14.01,2013-02-02 16:49:00,
2013-02-02 11:54:00,19.4,7.8,30.14,SSE,160,10.0,13.0,60,0.00,,---,0.00,VWS V14.01,2013-02-02 16:54:00,
2013-02-02 11:59:00,19.0,7.8,30.13,South,183,4.0,13.0,61,0.00,,---,0.00,VWS V14.01,2013-02-02 16:59:00,
2013-02-02 12:04:00,19.1,8.9,30.13,SSW,194,12.0,13.0,64,0.00,,---,0.00,VWS V14.01,2013-02-02 17:04:00,
2013-02-02 12:09:00,18.9,9.1,30.13,ESE,105,9.0,15.0,65,0.00,,---,0.00,VWS V14.01,2013-02-02 17:09:00,
2013-02-02 12:14:00,19.0,9.5,30.12,SSE,158,8.0,13.0,66,0.00,,---,0.00,VWS V14.01,2013-02-02 17:14:00,
2013-02-02 12:19:00,19.0,9.5,30.12,South,181,8.0,14.0,66,0.00,,---,0.00,VWS V14.01,2013-02-02 17:19:00,
2013-02-02 12:24:00,19.4,9.6,30.12,South,179,5.0,10.0,65,0.00,,---,0.00,VWS V14.01,2013-02-02 17:24:00,
2013-02-02 12:29:00,20.0,10.1,30.11,SSE,150,5.0,10.0,65,0.00,,---,0.00,VWS V14.01,2013-02-02 17:29:00,
2013-02-02 12:34:00,19.9,9.7,30.11,South,170,6.0,12.0,64,0.00,,---,0.00,VWS V14.01,2013-02-02 17:34:00,
2013-02-02 12:39:00,19.7,9.5,30.10,SE,136,7.0,12.0,64,0.00,,---,0.00,VWS V14.01,2013-02-02 17:39:00,
2013-02-02 12:44:00,19.4,9.9,30.10,SE,142,3.0,9.0,66,0.00,,---,0.00,VWS V14.01,2013-02-02 17:44:00,
2013-02-02 12:49:00,19.5,10.0,30.10,SSE,153,6.0,11.0,66,0.00,,---,0.00,VWS V14.01,2013-02-02 17:49:00,
2013-02-02 12:54:00,19.8,10.3,30.10,SSE,160,5.0,9.0,66,0.00,,---,0.00,VWS V14.01,2013-02-02 17:54:00,
2013-02-02 12:59:00,19.7,9.9,30.09,South,181,9.0,10.0,65,0.00,,---,0.00,VWS V14.01,2013-02-02 17:59:00,
2013-02-02 13:04:00,19.7,9.9,30.09,SSE,159,7.0,8.0,65,0.00,,---,0.00,VWS V14.01,2013-02-02 18:04:00,
2013-02-02 13:09:00,19.7,10.2,30.09,SSE,149,2.0,10.0,66,0.00,,---,0.00,VWS V14.01,2013-02-02 18:09:00,
2013-02-02 13:14:00,19.8,9.6,30.08,SSE,153,6.0,11.0,64,0.00,,---,0.00,VWS V14.01,2013-02-02 18:14:00,
2013-02-02 13:19:00,19.4,9.2,30.08,South,181,9.0,12.0,64,0.00,,---,0.00,VWS V14.01,2013-02-02 18:19:00,
2013-02-02 13:24:00,19.7,9.5,30.08,SSE,153,5.0,10.0,64,0.00,,---,0.00,VWS V14.01,2013-02-02 18:24:00,
2013-02-02 13:29:00,20.1,9.5,30.08,SW,233,3.0,8.0,63,0.00,,---,0.00,VWS V14.01,2013-02-02 18:29:00,
2013-02-02 13:34:00,20.4,9.5,30.08,SE,144,7.0,10.0,62,0.00,,---,0.00,VWS V14.01,2013-02-02 18:34:00,
2013-02-02 13:39:00,20.4,9.5,30.08,SE,128,4.0,7.0,62,0.00,,---,0.00,VWS V14.01,2013-02-02 18:39:00,
2013-02-02 13:44:00,20.1,8.8,30.07,SE,128,5.0,10.0,61,0.00,,---,0.00,VWS V14.01,2013-02-02 18:44:00,
2013-02-02 13:49:00,20.2,8.6,30.07,South,188,4.0,12.0,60,0.00,,---,0.00,VWS V14.01,2013-02-02 18:49:00,
2013-02-02 13:54:00,20.8,9.5,30.07,SSW,204,7.0,10.0,61,0.00,,---,0.00,VWS V14.01,2013-02-02 18:54:00,
2013-02-02 13:59:00,21.2,8.7,30.07,SSW,202,7.0,10.0,58,0.00,,---,0.00,VWS V14.01,2013-02-02 18:59:00,
2013-02-02 14:04:00,21.4,8.6,30.07,ESE,113,1.0,8.0,57,0.00,,---,0.00,VWS V14.01,2013-02-02 19:04:00,
2013-02-02 14:09:00,21.3,8.4,30.07,SE,126,1.0,7.0,57,0.00,,---,0.00,VWS V14.01,2013-02-02 19:09:00,
2013-02-02 14:14:00,21.3,8.8,30.07,SE,128,4.0,11.0,58,0.00,,---,0.00,VWS V14.01,2013-02-02 19:14:00,
2013-02-02 14:19:00,21.1,9.0,30.06,SSE,161,4.0,6.0,59,0.00,,---,0.00,VWS V14.01,2013-02-02 19:19:00,
2013-02-02 14:24:00,21.4,9.3,30.06,South,169,4.0,5.0,59,0.00,,---,0.00,VWS V14.01,2013-02-02 19:24:00,
2013-02-02 14:29:00,21.5,9.4,30.07,East,91,0.0,9.0,59,0.00,,---,0.00,VWS V14.01,2013-02-02 19:29:00,
2013-02-02 14:34:00,21.5,7.8,30.06,WSW,243,13.0,15.0,55,0.00,,---,0.00,VWS V14.01,2013-02-02 19:34:00,
2013-02-02 14:39:00,21.1,7.1,30.06,West,269,7.0,14.0,54,0.00,,---,0.00,VWS V14.01,2013-02-02 19:39:00,
2013-02-02 14:44:00,20.8,7.2,30.06,West,276,4.0,14.0,55,0.00,,---,0.00,VWS V14.01,2013-02-02 19:44:00,
2013-02-02 14:49:00,20.5,6.1,30.06,West,273,7.0,14.0,53,0.00,,---,0.00,VWS V14.01,2013-02-02 19:49:00,
2013-02-02 14:54:00,20.3,6.3,30.06,West,274,6.0,15.0,54,0.00,,---,0.00,VWS V14.01,2013-02-02 19:54:00,
2013-02-02 14:59:00,20.1,6.1,30.06,WSW,254,8.0,12.0,54,0.00,,---,0.00,VWS V14.01,2013-02-02 19:59:00,
2013-02-02 15:04:00,20.1,6.5,30.06,WNW,290,7.0,10.0,55,0.00,,---,0.00,VWS V14.01,2013-02-02 20:04:00,
2013-02-02 15:09:00,20.2,7.4,30.06,West,271,3.0,11.0,57,0.00,,---,0.00,VWS V14.01,2013-02-02 20:09:00,
2013-02-02 15:14:00,20.3,7.1,30.06,SW,235,3.0,9.0,56,0.00,,---,0.00,VWS V14.01,2013-02-02 20:14:00,
2013-02-02 15:19:00,20.3,6.3,30.06,WSW,257,5.0,10.0,54,0.00,,---,0.00,VWS V14.01,2013-02-02 20:19:00,
2013-02-02 15:24:00,20.4,6.8,30.06,West,270,4.0,9.0,55,0.00,,---,0.00,VWS V14.01,2013-02-02 20:24:00,
2013-02-02 15:29:00,20.6,7.4,30.06,SW,217,4.0,7.0,56,0.00,,---,0.00,VWS V14.01,2013-02-02 20:29:00,
2013-02-02 15:34:00,20.5,7.7,30.05,WSW,253,5.0,10.0,57,0.00,,---,0.00,VWS V14.01,2013-02-02 20:34:00,
2013-02-02 15:39:00,20.4,7.6,30.05,West,263,4.0,9.0,57,0.00,,---,0.00,VWS V14.01,2013-02-02 20:39:00,
2013-02-02 15:44:00,20.3,7.9,30.05,WNW,287,8.0,10.0,58,0.00,,---,0.00,VWS V14.01,2013-02-02 20:44:00,
2013-02-02 15:49:00,20.1,8.1,30.05,WNW,298,6.0,10.0,59,0.00,,---,0.00,VWS V14.01,2013-02-02 20:49:00,
2013-02-02 15:54:00,20.0,7.6,30.05,WNW,292,7.0,9.0,58,0.00,,---,0.00,VWS V14.01,2013-02-02 20:54:00,
2013-02-02 15:59:00,19.8,7.4,30.05,WNW,293,6.0,10.0,58,0.00,,---,0.00,VWS V14.01,2013-02-02 20:59:00,
2013-02-02 16:04:00,19.8,7.4,30.05,West,278,6.0,11.0,58,0.00,,---,0.00,VWS V14.01,2013-02-02 21:04:00,
2013-02-02 16:09:00,19.6,7.2,30.06,WSW,239,6.0,10.0,58,0.00,,---,0.00,VWS V14.01,2013-02-02 21:09:00,
2013-02-02 16:14:00,19.5,7.5,30.05,WNW,285,5.0,7.0,59,0.00,,---,0.00,VWS V14.01,2013-02-02 21:14:00,
2013-02-02 16:19:00,19.4,7.4,30.06,SW,236,3.0,10.0,59,0.00,,---,0.00,VWS V14.01,2013-02-02 21:19:00,
2013-02-02 16:24:00,19.3,7.7,30.06,WSW,245,1.0,6.0,60,0.00,,---,0.00,VWS V14.01,2013-02-02 21:24:00,
2013-02-02 16:29:00,19.2,7.2,30.05,WNW,285,8.0,8.0,59,0.00,,---,0.00,VWS V14.01,2013-02-02 21:29:00,
2013-02-02 16:34:00,19.1,7.5,30.05,West,279,6.0,6.0,60,0.00,,---,0.00,VWS V14.01,2013-02-02 21:34:00,
2013-02-02 16:39:00,19.0,7.8,30.06,West,259,4.0,6.0,61,0.00,,---,0.00,VWS V14.01,2013-02-02 21:39:00,
2013-02-02 16:45:00,18.8,7.6,30.05,WSW,252,4.0,7.0,61,0.00,,---,0.00,VWS V14.01,2013-02-02 21:45:00,
2013-02-02 16:50:00,18.6,7.4,30.05,West,263,4.0,7.0,61,0.00,,---,0.00,VWS V14.01,2013-02-02 21:50:00,
2013-02-02 16:55:00,18.4,7.2,30.06,SW,215,4.0,9.0,61,0.00,,---,0.00,VWS V14.01,2013-02-02 21:55:00,
2013-02-02 17:00:00,18.3,7.5,30.06,WSW,253,2.0,5.0,62,0.00,,---,0.00,VWS V14.01,2013-02-02 22:00:00,
2013-02-02 17:05:00,18.1,7.3,30.05,West,273,6.0,9.0,62,0.00,,---,0.00,VWS V14.01,2013-02-02 22:05:00,
2013-02-02 17:10:00,17.9,7.1,30.05,WSW,255,4.0,8.0,62,0.00,,---,0.00,VWS V14.01,2013-02-02 22:10:00,
2013-02-02 17:15:00,17.7,7.3,30.05,West,267,2.0,7.0,63,0.00,,---,0.00,VWS V14.01,2013-02-02 22:15:00,
2013-02-02 17:20:00,17.5,7.1,30.06,SW,229,4.0,6.0,63,0.00,,---,0.00,VWS V14.01,2013-02-02 22:20:00,
2013-02-02 17:25:00,17.3,7.2,30.06,WSW,243,4.0,5.0,64,0.00,,---,0.00,VWS V14.01,2013-02-02 22:25:00,
2013-02-02 17:30:00,17.2,7.1,30.06,West,269,5.0,9.0,64,0.00,,---,0.00,VWS V14.01,2013-02-02 22:30:00,
2013-02-02 17:35:00,17.0,6.9,30.06,West,266,6.0,8.0,64,0.00,,---,0.00,VWS V14.01,2013-02-02 22:35:00,
2013-02-02 17:40:00,17.0,6.9,30.06,WSW,255,4.0,9.0,64,0.00,,---,0.00,VWS V14.01,2013-02-02 22:40:00,
2013-02-02 17:45:00,16.8,6.8,30.06,West,269,5.0,6.0,64,0.00,,---,0.00,VWS V14.01,2013-02-02 22:45:00,
2013-02-02 17:50:00,16.8,7.1,30.06,West,262,5.0,8.0,65,0.00,,---,0.00,VWS V14.01,2013-02-02 22:50:00,
2013-02-02 17:55:00,16.7,7.0,30.06,WNW,283,6.0,9.0,65,0.00,,---,0.00,VWS V14.01,2013-02-02 22:55:00,
2013-02-02 18:00:00,16.7,7.0,30.06,West,269,5.0,7.0,65,0.00,,---,0.00,VWS V14.01,2013-02-02 23:00:00,
2013-02-02 18:06:00,16.6,6.9,30.06,West,276,3.0,6.0,65,0.00,,---,0.00,VWS V14.01,2013-02-02 23:06:00,
2013-02-02 18:11:00,16.5,7.1,30.06,WNW,285,5.0,7.0,66,0.00,,---,0.00,VWS V14.01,2013-02-02 23:11:00,
2013-02-02 18:16:00,16.4,7.0,30.06,WNW,290,3.0,6.0,66,0.00,,---,0.00,VWS V14.01,2013-02-02 23:16:00,
2013-02-02 18:21:00,16.3,7.3,30.07,NW,307,3.0,6.0,67,0.00,,---,0.00,VWS V14.01,2013-02-02 23:21:00,
2013-02-02 18:26:00,16.3,7.3,30.06,West,280,4.0,7.0,67,0.00,,---,0.00,VWS V14.01,2013-02-02 23:26:00,
2013-02-02 18:31:00,16.3,7.3,30.06,WNW,293,4.0,7.0,67,0.00,,---,0.00,VWS V14.01,2013-02-02 23:31:00,
2013-02-02 18:36:00,16.2,7.2,30.06,West,281,4.0,6.0,67,0.00,,---,0.00,VWS V14.01,2013-02-02 23:36:00,
2013-02-02 18:41:00,16.2,7.5,30.06,West,278,3.0,6.0,68,0.00,,---,0.00,VWS V14.01,2013-02-02 23:41:00,
2013-02-02 18:46:00,16.1,7.4,30.06,WNW,287,3.0,5.0,68,0.00,,---,0.00,VWS V14.01,2013-02-02 23:46:00,
2013-02-02 18:51:00,16.2,7.8,30.06,WNW,301,4.0,4.0,69,0.00,,---,0.00,VWS V14.01,2013-02-02 23:51:00,
2013-02-02 18:56:00,16.1,7.7,30.06,WNW,293,2.0,5.0,69,0.00,,---,0.00,VWS V14.01,2013-02-02 23:56:00,
2013-02-02 19:01:00,16.2,8.1,30.07,West,280,4.0,6.0,70,0.00,,---,0.00,VWS V14.01,2013-02-03 00:01:00,
2013-02-02 19:06:00,16.1,7.7,30.07,West,280,1.0,4.0,69,0.00,,---,0.00,VWS V14.01,2013-02-03 00:06:00,
2013-02-02 19:11:00,16.1,7.7,30.07,WSW,253,1.0,5.0,69,0.00,,---,0.00,VWS V14.01,2013-02-03 00:11:00,
2013-02-02 19:16:00,16.1,8.1,30.07,West,278,1.0,4.0,70,0.00,,---,0.00,VWS V14.01,2013-02-03 00:16:00,
2013-02-02 19:21:00,16.0,8.0,30.07,WSW,256,3.0,4.0,70,0.00,,---,0.00,VWS V14.01,2013-02-03 00:21:00,
2013-02-02 19:26:00,16.0,8.0,30.07,West,273,1.0,3.0,70,0.00,,---,0.00,VWS V14.01,2013-02-03 00:26:00,
2013-02-02 19:31:00,15.9,8.2,30.07,West,274,2.0,4.0,71,0.00,,---,0.00,VWS V14.01,2013-02-03 00:31:00,
2013-02-02 19:36:00,15.8,8.1,30.07,West,281,2.0,4.0,71,0.00,,---,0.00,VWS V14.01,2013-02-03 00:36:00,
2013-02-02 19:41:00,15.7,8.3,30.07,WSW,242,1.0,4.0,72,0.00,,---,0.00,VWS V14.01,2013-02-03 00:41:00,
2013-02-02 19:46:00,15.6,8.2,30.07,West,263,3.0,4.0,72,0.00,,---,0.00,VWS V14.01,2013-02-03 00:46:00,
2013-02-02 19:51:00,15.4,8.3,30.07,West,263,4.0,5.0,73,0.00,,---,0.00,VWS V14.01,2013-02-03 00:51:00,
2013-02-02 19:56:00,15.3,8.2,30.08,West,266,4.0,8.0,73,0.00,,---,0.00,VWS V14.01,2013-02-03 00:56:00,
2013-02-02 20:01:00,15.2,8.4,30.08,WSW,253,2.0,6.0,74,0.00,,---,0.00,VWS V14.01,2013-02-03 01:01:00,
2013-02-02 20:07:00,15.0,8.5,30.08,West,267,3.0,5.0,75,0.00,,---,0.00,VWS V14.01,2013-02-03 01:07:00,
2013-02-02 20:12:00,14.9,8.7,30.08,West,269,2.0,11.0,76,0.00,,---,0.00,VWS V14.01,2013-02-03 01:12:00,
2013-02-02 20:17:00,14.8,8.6,30.08,WNW,288,4.0,9.0,76,0.00,,---,0.00,VWS V14.01,2013-02-03 01:17:00,
2013-02-02 20:22:00,14.6,8.4,30.08,WNW,288,2.0,9.0,76,0.00,,---,0.00,VWS V14.01,2013-02-03 01:22:00,
2013-02-02 20:27:00,14.5,8.3,30.08,WSW,249,5.0,9.0,76,0.00,,---,0.00,VWS V14.01,2013-02-03 01:27:00,
2013-02-02 20:32:00,14.4,8.5,30.08,West,281,3.0,6.0,77,0.00,,---,0.00,VWS V14.01,2013-02-03 01:32:00,
2013-02-02 20:37:00,14.2,8.3,30.08,West,265,3.0,6.0,77,0.00,,---,0.00,VWS V14.01,2013-02-03 01:37:00,
2013-02-02 20:42:00,14.1,8.2,30.08,West,270,3.0,6.0,77,0.00,,---,0.00,VWS V14.01,2013-02-03 01:42:00,
2013-02-02 20:47:00,14.1,8.2,30.08,West,276,4.0,6.0,77,0.00,,---,0.00,VWS V14.01,2013-02-03 01:47:00,
2013-02-02 20:52:00,14.1,8.2,30.08,WNW,292,4.0,5.0,77,0.00,,---,0.00,VWS V14.01,2013-02-03 01:52:00,
2013-02-02 20:57:00,14.0,8.1,30.08,WNW,283,0.0,3.0,77,0.00,,---,0.00,VWS V14.01,2013-02-03 01:57:00,
2013-02-02 21:02:00,13.8,7.9,30.08,WNW,283,0.0,1.0,77,0.00,,---,0.00,VWS V14.01,2013-02-03 02:02:00,
2013-02-02 21:07:00,13.6,7.7,30.08,West,278,1.0,2.0,77,0.00,,---,0.00,VWS V14.01,2013-02-03 02:07:00,
2013-02-02 21:12:00,13.5,7.9,30.08,WNW,285,1.0,3.0,78,0.00,,---,0.00,VWS V14.01,2013-02-03 02:12:00,
2013-02-02 21:17:00,13.4,7.8,30.08,WNW,285,2.0,3.0,78,0.00,,---,0.00,VWS V14.01,2013-02-03 02:17:00,
2013-02-02 21:22:00,13.3,7.7,30.08,WNW,295,2.0,2.0,78,0.00,,---,0.00,VWS V14.01,2013-02-03 02:22:00,
2013-02-02 21:27:00,13.2,7.6,30.08,WNW,293,3.0,3.0,78,0.00,,---,0.00,VWS V14.01,2013-02-03 02:27:00,
2013-02-02 21:32:00,13.1,7.5,30.08,NW,309,2.0,3.0,78,0.00,,---,0.00,VWS V14.01,2013-02-03 02:32:00,
2013-02-02 21:37:00,13.0,7.7,30.08,WNW,287,1.0,3.0,79,0.00,,---,0.00,VWS V14.01,2013-02-03 02:37:00,
2013-02-02 21:42:00,13.0,7.7,30.08,WNW,294,1.0,2.0,79,0.00,,---,0.00,VWS V14.01,2013-02-03 02:42:00,
2013-02-02 21:47:00,13.0,7.7,30.08,NW,318,0.0,3.0,79,0.00,,---,0.00,VWS V14.01,2013-02-03 02:47:00,
2013-02-02 21:52:00,13.0,7.7,30.08,NW,324,1.0,1.0,79,0.00,,---,0.00,VWS V14.01,2013-02-03 02:52:00,
2013-02-02 21:57:00,13.0,7.7,30.08,WNW,294,0.0,1.0,79,0.00,,---,0.00,VWS V14.01,2013-02-03 02:57:00,
2013-02-02 22:02:00,13.0,7.7,30.08,WNW,295,0.0,1.0,79,0.00,,---,0.00,VWS V14.01,2013-02-03 03:02:00,
2013-02-02 22:07:00,13.0,8.0,30.08,WNW,295,0.0,0.0,80,0.00,,---,0.00,VWS V14.01,2013-02-03 03:07:00,
2013-02-02 22:12:00,13.0,8.0,30.08,NW,308,3.0,3.0,80,0.00,,---,0.00,VWS V14.01,2013-02-03 03:12:00,
2013-02-02 22:17:00,13.1,8.1,30.07,West,278,0.0,2.0,80,0.00,,---,0.00,VWS V14.01,2013-02-03 03:17:00,
2013-02-02 22:22:00,13.2,8.2,30.07,WSW,257,0.0,1.0,80,0.00,,---,0.00,VWS V14.01,2013-02-03 03:22:00,
2013-02-02 22:27:00,13.2,8.2,30.07,WSW,257,0.0,0.0,80,0.00,,---,0.00,VWS V14.01,2013-02-03 03:27:00,
2013-02-02 22:32:00,13.2,8.2,30.07,WSW,257,0.0,0.0,80,0.00,,---,0.00,VWS V14.01,2013-02-03 03:32:00,
2013-02-02 22:37:00,13.2,8.2,30.07,WSW,257,0.0,0.0,80,0.00,,---,0.00,VWS V14.01,2013-02-03 03:37:00,
2013-02-02 22:42:00,13.1,8.1,30.07,WSW,257,0.0,0.0,80,0.00,,---,0.00,VWS V14.01,2013-02-03 03:42:00,
2013-02-02 22:47:00,13.2,8.2,30.07,NW,316,1.0,1.0,80,0.00,,---,0.00,VWS V14.01,2013-02-03 03:47:00,
2013-02-02 22:52:00,13.1,8.1,30.07,NW,316,0.0,1.0,80,0.00,,---,0.00,VWS V14.01,2013-02-03 03:52:00,
2013-02-02 22:57:00,13.2,8.2,30.07,NW,316,0.0,1.0,80,0.00,,---,0.00,VWS V14.01,2013-02-03 03:57:00,
2013-02-02 23:02:00,13.1,8.1,30.07,NW,316,0.0,1.0,80,0.00,,---,0.00,VWS V14.01,2013-02-03 04:02:00,
2013-02-02 23:07:00,13.2,8.2,30.07,NW,304,0.0,0.0,80,0.00,,---,0.00,VWS V14.01,2013-02-03 04:07:00,
2013-02-02 23:12:00,13.1,8.1,30.07,NW,304,0.0,0.0,80,0.00,,---,0.00,VWS V14.01,2013-02-03 04:12:00,
2013-02-02 23:17:00,13.1,8.1,30.07,NW,304,0.0,0.0,80,0.00,,---,0.00,VWS V14.01,2013-02-03 04:17:00,
2013-02-02 23:22:00,13.1,8.1,30.07,WNW,283,0.0,1.0,80,0.00,,---,0.00,VWS V14.01,2013-02-03 04:22:00,
2013-02-02 23:27:00,13.2,8.2,30.07,WSW,239,0.0,1.0,80,0.00,,---,0.00,VWS V14.01,2013-02-03 04:27:00,
2013-02-02 23:32:00,13.2,8.5,30.07,West,269,0.0,0.0,81,0.00,,---,0.00,VWS V14.01,2013-02-03 04:32:00,
2013-02-02 23:37:00,13.2,8.5,30.07,SW,229,0.0,1.0,81,0.00,,---,0.00,VWS V14.01,2013-02-03 04:37:00,
2013-02-02 23:42:00,13.3,8.6,30.07,SW,229,0.0,1.0,81,0.00,,---,0.00,VWS V14.01,2013-02-03 04:42:00,
2013-02-02 23:47:00,13.2,8.5,30.07,SW,232,0.0,1.0,81,0.00,,---,0.00,VWS V14.01,2013-02-03 04:47:00,
2013-02-02 23:52:00,13.2,8.5,30.07,SW,232,0.0,1.0,81,0.00,,---,0.00,VWS V14.01,2013-02-03 04:52:00,
2013-02-02 23:57:00,13.2,8.5,30.07,SW,229,0.0,0.0,81,0.00,,---,0.00,VWS V14.01,2013-02-03 04:57:00,